Time;durP1;ratioP1;P1;durP2;ratioP2;P2;SDS_P1;SDS_P2;PMS_P1;PMS_P2;Temp;Humidity;BMP_temperature;BMP_pressure;BME280_temperature;BME280_humidity;BME280_pressure;Samples;Min_cycle;Max_cycle;Signal;HPM_P1;HPM_P2
2023/05/23 00:00:32;;;;;;;14.90;8.30;;;17.90;99.90;;;;;;5111410;28;20454;-67
2023/05/23 00:02:59;;;;;;;13.83;7.90;;;17.90;99.90;;;;;;5105189;28;21019;-67
2023/05/23 00:05:28;;;;;;;12.83;8.30;;;17.90;99.90;;;;;;5109818;28;20915;-67
2023/05/23 00:07:54;;;;;;;15.00;10.00;;;18.00;99.90;;;;;;5110742;27;20436;-68
2023/05/23 00:10:22;;;;;;;14.80;9.63;;;18.00;99.90;;;;;;5111294;28;20475;-68
2023/05/23 00:12:49;;;;;;;14.97;9.10;;;17.90;99.90;;;;;;5110758;28;20448;-67
2023/05/23 00:15:15;;;;;;;12.03;8.50;;;18.00;99.90;;;;;;5114729;27;20996;-67
2023/05/23 00:17:43;;;;;;;15.77;9.20;;;18.00;99.90;;;;;;5111400;28;20978;-68
2023/05/23 00:20:11;;;;;;;17.83;10.90;;;18.00;99.90;;;;;;5111487;28;20447;-67
2023/05/23 00:22:41;;;;;;;17.90;9.63;;;18.00;99.90;;;;;;5114271;28;20483;-68
2023/05/23 00:25:08;;;;;;;18.50;10.37;;;18.00;99.90;;;;;;5111683;28;20809;-68
2023/05/23 00:27:35;;;;;;;20.00;12.07;;;17.90;99.90;;;;;;5111054;28;20946;-68
2023/05/23 00:30:02;;;;;;;12.70;9.70;;;18.00;99.90;;;;;;5108676;28;20525;-67
2023/05/23 00:32:29;;;;;;;21.43;10.67;;;18.00;99.90;;;;;;5108702;28;20455;-68
2023/05/23 00:34:57;;;;;;;19.40;11.53;;;17.90;99.90;;;;;;5107903;28;20444;-68
2023/05/23 00:37:23;;;;;;;18.03;10.60;;;17.80;99.90;;;;;;5110058;28;20462;-66
2023/05/23 00:39:52;;;;;;;13.37;8.20;;;17.80;99.90;;;;;;5108837;28;20816;-67
2023/05/23 00:42:19;;;;;;;18.07;12.03;;;17.80;99.90;;;;;;5104705;28;20475;-67
2023/05/23 00:44:47;;;;;;;17.10;10.63;;;17.80;99.90;;;;;;5109606;28;20443;-67
2023/05/23 00:47:14;;;;;;;18.90;10.80;;;18.00;99.90;;;;;;5110962;28;20934;-67
2023/05/23 00:49:41;;;;;;;19.83;11.13;;;18.00;99.90;;;;;;5113023;28;20459;-68
2023/05/23 00:52:08;;;;;;;17.27;11.40;;;18.20;99.90;;;;;;5110650;28;20550;-69
2023/05/23 00:54:36;;;;;;;21.70;12.63;;;18.30;99.90;;;;;;5110538;28;20479;-68
2023/05/23 00:57:05;;;;;;;17.37;10.57;;;18.10;99.90;;;;;;5104794;28;20443;-68
2023/05/23 00:59:33;;;;;;;24.57;12.40;;;18.10;99.90;;;;;;5111480;28;20973;-68
2023/05/23 01:02:01;;;;;;;21.70;13.23;;;18.10;99.90;;;;;;5106940;28;20494;-68
2023/05/23 01:04:28;;;;;;;19.30;13.10;;;18.20;99.90;;;;;;5114140;28;20444;-67
2023/05/23 01:06:55;;;;;;;20.33;11.40;;;18.30;99.90;;;;;;5113922;28;20463;-66
2023/05/23 01:09:23;;;;;;;26.77;12.97;;;18.30;99.90;;;;;;5114620;28;20489;-67
2023/05/23 01:11:58;;;;;;;18.17;11.33;;;18.20;99.90;;;;;;5114074;28;20452;-67
2023/05/23 01:14:35;;;;;;;21.57;12.40;;;18.10;99.90;;;;;;5113994;28;20427;-67
2023/05/23 01:17:10;;;;;;;23.27;11.80;;;18.20;99.90;;;;;;5114224;28;20804;-68
2023/05/23 01:19:55;;;;;;;20.03;11.07;;;18.20;99.90;;;;;;5114848;28;20466;-67
2023/05/23 01:22:33;;;;;;;23.20;13.87;;;18.10;99.90;;;;;;5114809;27;20474;-68
2023/05/23 01:25:10;;;;;;;24.00;12.90;;;18.10;99.90;;;;;;5112978;28;20435;-67
2023/05/23 01:27:49;;;;;;;23.17;12.70;;;18.00;99.90;;;;;;5112750;28;20507;-68
2023/05/23 01:30:19;;;;;;;23.97;12.53;;;17.90;99.90;;;;;;5109818;28;20436;-67
2023/05/23 01:32:47;;;;;;;22.60;13.40;;;17.80;99.90;;;;;;5113409;28;20444;-67
2023/05/23 01:35:19;;;;;;;20.30;12.87;;;17.90;99.90;;;;;;5113729;28;20468;-68
2023/05/23 01:37:46;;;;;;;23.57;12.77;;;17.80;99.90;;;;;;5113318;28;20973;-67
2023/05/23 01:40:13;;;;;;;26.40;13.60;;;17.80;99.90;;;;;;5113982;28;20460;-68
2023/05/23 01:42:40;;;;;;;21.63;12.53;;;17.80;99.90;;;;;;5114259;28;20475;-68
2023/05/23 01:45:10;;;;;;;26.07;16.27;;;17.70;99.90;;;;;;5113797;28;20443;-67
2023/05/23 01:47:38;;;;;;;22.67;12.17;;;17.80;99.90;;;;;;5114147;28;20446;-67
2023/05/23 01:50:06;;;;;;;26.97;13.97;;;17.80;99.90;;;;;;5112688;28;20451;-67
2023/05/23 01:52:34;;;;;;;27.10;14.33;;;17.80;99.90;;;;;;5113788;28;20526;-69
2023/05/23 01:55:01;;;;;;;28.70;13.27;;;17.70;99.90;;;;;;5111832;28;20684;-68
2023/05/23 01:57:30;;;;;;;28.37;15.60;;;17.60;99.90;;;;;;5111778;27;20518;-68
2023/05/23 01:59:57;;;;;;;22.37;14.70;;;17.50;99.90;;;;;;5111803;28;20448;-68
2023/05/23 02:02:25;;;;;;;27.40;16.00;;;17.60;99.90;;;;;;5113715;28;20498;-68
2023/05/23 02:04:53;;;;;;;24.37;13.47;;;17.50;99.90;;;;;;5112628;28;20805;-68
2023/05/23 02:07:21;;;;;;;28.57;15.77;;;17.50;99.90;;;;;;5113625;28;20448;-67
2023/05/23 02:09:48;;;;;;;27.63;15.20;;;17.50;99.90;;;;;;5112828;28;20486;-69
2023/05/23 02:12:15;;;;;;;24.63;15.50;;;17.50;99.90;;;;;;5113341;28;20462;-67
2023/05/23 02:14:42;;;;;;;26.90;15.17;;;17.50;99.90;;;;;;5112210;28;20463;-68
2023/05/23 02:17:09;;;;;;;24.47;15.50;;;17.50;99.90;;;;;;5112885;28;20919;-68
2023/05/23 02:19:38;;;;;;;27.03;15.70;;;17.40;99.90;;;;;;5113352;28;20452;-68
2023/05/23 02:22:05;;;;;;;26.47;13.57;;;17.50;99.90;;;;;;5112378;28;20554;-68
2023/05/23 02:24:32;;;;;;;27.03;15.40;;;17.60;99.90;;;;;;5111982;28;20809;-68
2023/05/23 02:26:58;;;;;;;26.63;15.43;;;17.70;99.90;;;;;;5112787;28;20474;-68
2023/05/23 02:29:25;;;;;;;26.63;15.70;;;17.80;99.90;;;;;;5113203;28;20444;-68
2023/05/23 02:31:52;;;;;;;28.80;15.53;;;17.70;99.90;;;;;;5112425;28;20454;-67
2023/05/23 02:34:19;;;;;;;27.43;14.97;;;17.70;99.90;;;;;;5112754;28;20799;-67
2023/05/23 02:36:47;;;;;;;24.50;14.40;;;17.70;99.90;;;;;;5114504;27;20530;-68
2023/05/23 02:39:14;;;;;;;27.33;14.40;;;17.80;99.90;;;;;;5116247;27;20443;-68
2023/05/23 02:41:41;;;;;;;26.07;14.83;;;17.80;99.90;;;;;;5112664;28;20443;-68
2023/05/23 02:44:08;;;;;;;27.20;15.07;;;17.80;99.90;;;;;;5101494;28;20446;-68
2023/05/23 02:46:34;;;;;;;23.10;13.60;;;17.70;99.90;;;;;;5112848;28;20458;-67
2023/05/23 02:49:01;;;;;;;25.87;13.77;;;17.80;99.90;;;;;;5112298;28;20464;-68
2023/05/23 02:51:28;;;;;;;21.20;12.97;;;17.70;99.90;;;;;;5112515;28;20483;-67
2023/05/23 02:53:56;;;;;;;26.80;14.77;;;17.70;99.90;;;;;;5111715;28;20513;-67
2023/05/23 02:56:23;;;;;;;26.17;15.67;;;17.80;99.90;;;;;;5116826;27;20539;-68
2023/05/23 02:58:51;;;;;;;27.13;15.30;;;17.80;99.90;;;;;;5111901;28;20447;-68
2023/05/23 03:01:18;;;;;;;28.00;15.23;;;17.80;99.90;;;;;;5107947;28;20452;-68
2023/05/23 03:03:45;;;;;;;26.60;15.93;;;17.70;99.90;;;;;;5111475;28;20475;-68
2023/05/23 03:06:13;;;;;;;27.30;13.60;;;17.60;99.90;;;;;;5112025;28;20448;-68
2023/05/23 03:08:40;;;;;;;20.23;13.23;;;17.80;99.90;;;;;;5112224;28;20926;-68
2023/05/23 03:11:08;;;;;;;26.30;14.40;;;17.80;99.90;;;;;;5112320;28;20440;-68
2023/05/23 03:13:35;;;;;;;22.23;14.73;;;17.80;99.90;;;;;;5111502;28;20949;-67
2023/05/23 03:16:02;;;;;;;22.80;14.67;;;17.90;99.90;;;;;;5111163;28;20454;-67
2023/05/23 03:18:29;;;;;;;29.43;14.93;;;17.80;99.90;;;;;;5111852;28;20450;-67
2023/05/23 03:20:56;;;;;;;21.40;14.40;;;17.80;99.90;;;;;;5111174;28;21034;-67
2023/05/23 03:23:22;;;;;;;24.00;13.23;;;17.80;99.90;;;;;;5111524;28;20491;-67
2023/05/23 03:25:49;;;;;;;23.87;16.70;;;17.70;99.90;;;;;;5110649;28;20497;-68
2023/05/23 03:28:17;;;;;;;22.33;13.70;;;17.60;99.90;;;;;;5115133;27;20447;-67
2023/05/23 03:30:44;;;;;;;24.63;15.07;;;17.60;99.90;;;;;;5110954;28;20462;-68
2023/05/23 03:33:11;;;;;;;24.53;15.80;;;17.60;99.90;;;;;;5111713;28;20459;-67
2023/05/23 03:35:38;;;;;;;32.43;14.70;;;17.60;99.90;;;;;;5097934;28;20452;-67
2023/05/23 03:38:05;;;;;;;20.00;14.07;;;17.50;99.90;;;;;;5110496;28;20455;-67
2023/05/23 03:40:31;;;;;;;28.53;16.10;;;17.70;99.90;;;;;;5097630;28;20452;-68
2023/05/23 03:43:03;;;;;;;23.80;14.17;;;17.60;99.90;;;;;;5109761;28;20479;-68
2023/05/23 03:45:32;;;;;;;22.57;12.70;;;17.40;99.90;;;;;;5111662;28;20444;-67
2023/05/23 03:47:58;;;;;;;25.83;15.80;;;17.50;99.90;;;;;;5111040;28;20444;-68
2023/05/23 03:50:26;;;;;;;25.27;14.63;;;17.40;99.90;;;;;;5111598;28;20919;-68
2023/05/23 03:52:52;;;;;;;19.63;11.73;;;17.40;99.90;;;;;;5110328;28;20447;-68
2023/05/23 03:55:22;;;;;;;20.50;14.33;;;17.40;99.90;;;;;;5109474;28;20447;-67
2023/05/23 03:57:49;;;;;;;25.20;15.33;;;17.40;99.90;;;;;;5110275;28;20980;-67
2023/05/23 04:00:17;;;;;;;22.80;14.50;;;17.30;99.90;;;;;;5111521;28;20457;-68
2023/05/23 04:02:46;;;;;;;23.43;12.97;;;17.30;99.90;;;;;;5110461;28;20467;-68
2023/05/23 04:05:12;;;;;;;30.37;16.70;;;17.30;99.90;;;;;;5111684;28;20444;-67
2023/05/23 04:07:40;;;;;;;24.60;15.23;;;17.30;99.90;;;;;;5111203;28;20811;-67
2023/05/23 04:10:08;;;;;;;20.90;13.60;;;17.30;99.90;;;;;;5111218;28;20520;-66
2023/05/23 04:12:35;;;;;;;21.50;12.60;;;17.50;99.90;;;;;;5111232;28;20439;-68
2023/05/23 04:15:02;;;;;;;21.03;13.50;;;17.50;99.90;;;;;;5110766;28;20509;-68
2023/05/23 04:17:30;;;;;;;27.77;14.60;;;17.50;99.90;;;;;;5096843;28;20448;-67
2023/05/23 04:19:58;;;;;;;19.87;12.33;;;17.40;99.90;;;;;;5109877;28;20467;-68
2023/05/23 04:22:25;;;;;;;24.00;13.13;;;17.40;99.90;;;;;;5110294;28;20479;-68
2023/05/23 04:24:52;;;;;;;18.50;11.37;;;17.40;99.90;;;;;;5110331;28;20447;-68
2023/05/23 04:27:18;;;;;;;25.40;13.20;;;17.50;99.90;;;;;;5111163;28;20466;-68
2023/05/23 04:29:45;;;;;;;20.40;12.70;;;17.50;99.90;;;;;;5107140;28;20448;-68
2023/05/23 04:32:13;;;;;;;18.47;12.33;;;17.60;99.90;;;;;;5109809;28;20448;-68
2023/05/23 04:34:41;;;;;;;22.63;13.97;;;17.50;99.90;;;;;;5110543;28;20534;-67
2023/05/23 04:37:09;;;;;;;23.10;12.43;;;17.60;99.90;;;;;;5109567;28;20620;-67
2023/05/23 04:39:37;;;;;;;18.90;11.47;;;17.80;99.90;;;;;;5112092;28;20446;-67
2023/05/23 04:42:06;;;;;;;21.13;13.93;;;17.70;99.90;;;;;;5114694;28;20452;-67
2023/05/23 04:44:32;;;;;;;19.20;12.23;;;17.70;99.90;;;;;;5113528;28;22521;-68
2023/05/23 04:47:01;;;;;;;18.67;12.10;;;17.60;99.90;;;;;;5115599;27;20527;-67
2023/05/23 04:49:28;;;;;;;18.77;12.60;;;17.60;99.90;;;;;;5121283;27;20551;-68
2023/05/23 04:51:55;;;;;;;19.57;12.60;;;17.50;99.90;;;;;;5111980;28;20450;-67
2023/05/23 04:54:23;;;;;;;20.73;13.60;;;17.50;99.90;;;;;;5113710;28;20823;-67
2023/05/23 04:56:50;;;;;;;23.70;12.53;;;17.40;99.90;;;;;;5113290;28;20443;-67
2023/05/23 04:59:17;;;;;;;25.37;13.60;;;17.50;99.90;;;;;;5114772;28;20439;-67
2023/05/23 05:01:44;;;;;;;19.27;12.77;;;17.40;99.90;;;;;;5114304;28;20922;-68
2023/05/23 05:04:11;;;;;;;21.70;12.60;;;17.50;99.90;;;;;;5124580;27;20470;-68
2023/05/23 05:06:38;;;;;;;20.90;15.53;;;17.50;99.90;;;;;;5114806;28;20792;-67
2023/05/23 05:09:04;;;;;;;20.57;12.47;;;17.40;99.90;;;;;;5114200;28;20475;-67
2023/05/23 05:11:32;;;;;;;19.30;12.00;;;17.50;99.90;;;;;;5114965;28;20447;-65
2023/05/23 05:13:59;;;;;;;20.90;13.00;;;17.50;99.90;;;;;;5113832;28;20444;-67
2023/05/23 05:16:26;;;;;;;20.17;12.17;;;17.60;99.90;;;;;;5114670;28;20444;-67
2023/05/23 05:18:54;;;;;;;18.87;12.27;;;17.60;99.90;;;;;;5113452;28;20922;-67
2023/05/23 05:21:21;;;;;;;21.53;12.70;;;17.60;99.90;;;;;;5112615;28;20456;-68
2023/05/23 05:23:48;;;;;;;20.20;12.33;;;17.60;99.90;;;;;;5114606;27;20837;-69
2023/05/23 05:26:15;;;;;;;16.57;12.07;;;18.00;99.90;;;;;;5122272;27;20466;-69
2023/05/23 05:28:43;;;;;;;18.17;12.17;;;17.90;99.90;;;;;;5113481;28;20512;-69
2023/05/23 05:31:13;;;;;;;20.43;12.80;;;18.00;99.90;;;;;;5110520;27;20452;-67
2023/05/23 05:33:44;;;;;;;22.23;12.40;;;17.90;99.90;;;;;;5113517;28;20497;-67
2023/05/23 05:36:11;;;;;;;20.17;12.80;;;17.90;99.90;;;;;;5113684;28;20475;-68
2023/05/23 05:38:38;;;;;;;21.10;13.10;;;17.80;99.90;;;;;;5112523;28;20443;-68
2023/05/23 05:41:05;;;;;;;17.37;11.67;;;17.80;99.90;;;;;;5113026;28;21080;-68
2023/05/23 05:43:32;;;;;;;17.67;13.40;;;17.80;99.90;;;;;;5113652;27;20986;-68
2023/05/23 05:46:00;;;;;;;19.10;12.70;;;17.80;99.90;;;;;;5113297;28;20436;-68
2023/05/23 05:48:27;;;;;;;16.20;12.57;;;18.00;99.90;;;;;;5112294;28;20466;-68
2023/05/23 05:50:54;;;;;;;20.50;14.00;;;18.10;99.90;;;;;;5112748;28;20444;-68
2023/05/23 05:53:20;;;;;;;19.00;12.63;;;17.80;99.90;;;;;;5113766;28;20447;-68
2023/05/23 05:55:47;;;;;;;20.43;12.90;;;18.00;99.90;;;;;;5113516;28;20454;-68
2023/05/23 05:58:14;;;;;;;19.30;12.20;;;17.90;99.90;;;;;;5113217;28;20459;-69
2023/05/23 06:00:42;;;;;;;20.77;12.57;;;17.90;99.90;;;;;;5113413;28;20952;-70
2023/05/23 06:03:11;;;;;;;15.80;10.93;;;17.80;99.90;;;;;;5114169;28;20475;-68
2023/05/23 06:05:39;;;;;;;20.03;12.77;;;18.10;99.90;;;;;;5113954;28;20492;-68
2023/05/23 06:08:06;;;;;;;18.73;11.07;;;18.20;99.90;;;;;;5099094;28;20482;-68
2023/05/23 06:10:33;;;;;;;17.87;11.30;;;18.10;99.90;;;;;;5113800;28;20444;-68
2023/05/23 06:13:00;;;;;;;17.80;11.30;;;18.20;99.90;;;;;;5113251;28;20486;-68
2023/05/23 06:15:27;;;;;;;20.10;13.03;;;18.30;99.90;;;;;;5113550;28;20805;-68
2023/05/23 06:17:53;;;;;;;17.83;12.17;;;18.10;99.90;;;;;;5112297;28;20455;-68
2023/05/23 06:20:22;;;;;;;17.73;12.27;;;17.90;99.90;;;;;;5113270;28;20793;-68
2023/05/23 06:22:48;;;;;;;20.00;13.23;;;18.20;99.90;;;;;;5112877;28;20452;-68
2023/05/23 06:25:15;;;;;;;21.10;13.77;;;18.30;99.90;;;;;;5113191;28;20826;-68
2023/05/23 06:27:43;;;;;;;17.73;12.57;;;18.20;99.90;;;;;;5112310;28;20824;-69
2023/05/23 06:30:11;;;;;;;21.27;13.13;;;18.30;99.90;;;;;;5113344;28;20448;-68
2023/05/23 06:32:38;;;;;;;19.30;12.77;;;18.20;99.90;;;;;;5113195;28;20444;-68
2023/05/23 06:35:05;;;;;;;17.23;12.17;;;18.40;99.90;;;;;;5112858;28;20837;-68
2023/05/23 06:37:34;;;;;;;20.93;12.40;;;18.40;99.90;;;;;;5112671;28;20451;-68
2023/05/23 06:40:01;;;;;;;18.70;12.87;;;18.50;99.90;;;;;;5112765;28;20957;-69
2023/05/23 06:42:27;;;;;;;18.80;12.90;;;18.50;99.90;;;;;;5113294;28;20443;-69
2023/05/23 06:44:55;;;;;;;18.00;11.93;;;18.30;99.90;;;;;;5112434;28;20483;-67
2023/05/23 06:47:22;;;;;;;20.70;12.47;;;18.40;99.90;;;;;;5113235;28;20454;-69
2023/05/23 06:49:49;;;;;;;18.83;12.40;;;18.60;99.90;;;;;;5112419;28;20509;-69
2023/05/23 06:52:15;;;;;;;16.20;9.80;;;18.60;99.90;;;;;;5112908;28;20469;-69
2023/05/23 06:54:44;;;;;;;17.93;10.93;;;18.10;99.90;;;;;;5112151;28;20538;-67
2023/05/23 06:57:10;;;;;;;15.73;11.17;;;17.90;99.90;;;;;;5104598;28;20451;-67
2023/05/23 06:59:37;;;;;;;15.53;10.67;;;17.70;99.90;;;;;;5108820;28;20802;-69
2023/05/23 07:02:04;;;;;;;17.87;10.87;;;17.90;99.90;;;;;;5101972;28;20454;-67
2023/05/23 07:04:31;;;;;;;16.00;11.27;;;17.90;99.90;;;;;;5112119;28;20486;-69
2023/05/23 07:06:58;;;;;;;16.30;11.63;;;17.80;99.90;;;;;;5111873;28;20459;-68
2023/05/23 07:09:25;;;;;;;17.70;11.40;;;17.70;99.90;;;;;;5112045;28;20471;-68
2023/05/23 07:11:53;;;;;;;16.17;11.53;;;17.60;99.90;;;;;;5112201;28;20447;-68
2023/05/23 07:14:20;;;;;;;19.87;12.47;;;17.50;99.90;;;;;;5112407;28;20447;-68
2023/05/23 07:16:46;;;;;;;19.17;12.00;;;17.40;99.90;;;;;;5112027;28;20451;-68
2023/05/23 07:19:13;;;;;;;18.73;11.60;;;17.50;99.90;;;;;;5112067;28;20455;-68
2023/05/23 07:21:40;;;;;;;16.10;10.27;;;17.40;99.90;;;;;;5112626;28;20448;-67
2023/05/23 07:24:07;;;;;;;16.97;9.97;;;17.40;99.90;;;;;;5112437;28;20476;-68
2023/05/23 07:26:34;;;;;;;14.57;10.83;;;17.50;99.90;;;;;;5110181;28;20451;-68
2023/05/23 07:29:02;;;;;;;13.17;10.43;;;17.70;99.90;;;;;;5111319;28;20470;-68
2023/05/23 07:31:29;;;;;;;15.50;10.23;;;17.50;99.90;;;;;;5112260;28;20450;-68
2023/05/23 07:33:55;;;;;;;14.77;9.57;;;17.50;99.90;;;;;;5111576;28;20459;-68
2023/05/23 07:36:22;;;;;;;15.77;9.93;;;17.50;99.90;;;;;;5111900;28;20454;-68
2023/05/23 07:38:49;;;;;;;12.60;9.17;;;17.40;99.90;;;;;;5111075;28;20447;-68
2023/05/23 07:41:16;;;;;;;13.53;10.23;;;17.40;99.90;;;;;;5112226;28;20453;-68
2023/05/23 07:43:42;;;;;;;18.73;10.33;;;17.50;99.90;;;;;;5111355;28;20482;-69
2023/05/23 07:46:11;;;;;;;15.90;11.60;;;17.30;99.90;;;;;;5112282;28;20454;-68
2023/05/23 07:48:37;;;;;;;16.83;11.77;;;17.50;99.90;;;;;;5111769;28;20813;-68
2023/05/23 07:51:04;;;;;;;15.73;11.60;;;17.30;99.90;;;;;;5111421;28;20444;-69
2023/05/23 07:53:31;;;;;;;17.87;11.23;;;17.20;99.90;;;;;;5111349;28;20912;-68
2023/05/23 07:55:58;;;;;;;15.60;10.87;;;17.20;99.90;;;;;;5102191;28;21019;-66
2023/05/23 07:58:25;;;;;;;13.47;10.70;;;17.20;99.90;;;;;;5111220;28;20459;-67
2023/05/23 08:00:52;;;;;;;13.17;10.53;;;17.50;99.90;;;;;;5111191;28;20444;-67
2023/05/23 08:03:20;;;;;;;12.60;8.40;;;17.50;1.00;;;;;;5111767;28;20460;-67
2023/05/23 08:05:47;;;;;;;14.23;8.87;;;17.70;1.00;;;;;;5110815;28;20942;-67
2023/05/23 08:08:14;;;;;;;16.47;10.37;;;17.80;99.90;;;;;;5110723;28;20973;-68
2023/05/23 08:10:41;;;;;;;11.10;7.40;;;17.80;45.70;;;;;;5111595;28;20975;-68
2023/05/23 08:13:10;;;;;;;12.80;8.57;;;17.70;1.00;;;;;;5111827;28;20481;-68
2023/05/23 08:15:36;;;;;;;10.93;7.97;;;17.80;95.80;;;;;;5111606;28;20444;-68
2023/05/23 08:18:04;;;;;;;11.90;8.67;;;17.80;1.00;;;;;;5110663;28;20451;-67
2023/05/23 08:20:32;;;;;;;11.43;8.17;;;18.00;1.00;;;;;;5111493;28;20444;-67
2023/05/23 08:22:59;;;;;;;10.87;7.73;;;17.90;1.00;;;;;;5110638;28;20935;-67
2023/05/23 08:25:29;;;;;;;11.60;8.30;;;18.00;1.00;;;;;;5109400;28;20511;-68
2023/05/23 08:27:56;;;;;;;13.10;9.10;;;18.00;99.90;;;;;;5110325;28;20450;-69
2023/05/23 08:30:24;;;;;;;12.43;8.40;;;17.70;1.00;;;;;;5111420;28;20444;-68
2023/05/23 08:32:51;;;;;;;10.17;7.63;;;17.60;1.00;;;;;;5110707;28;20486;-67
2023/05/23 08:35:18;;;;;;;10.90;7.07;;;17.60;1.00;;;;;;5111026;28;20975;-67
2023/05/23 08:37:47;;;;;;;10.00;7.37;;;17.60;1.00;;;;;;5109999;28;20455;-68
2023/05/23 08:40:18;;;;;;;11.00;8.37;;;17.70;1.00;;;;;;5111011;28;20526;-68
2023/05/23 08:42:44;;;;;;;9.73;6.53;;;17.60;99.90;;;;;;5110984;28;20443;-68
2023/05/23 08:45:11;;;;;;;8.87;6.87;;;17.10;99.90;;;;;;5111325;28;20491;-68
2023/05/23 08:47:39;;;;;;;11.93;7.03;;;;;;;;;;5111141;28;20458;-67
2023/05/23 08:50:07;;;;;;;14.27;8.53;;;;;;;;;;5110509;28;20440;-68
2023/05/23 08:52:34;;;;;;;13.30;7.83;;;;;;;;;;5110829;28;20452;-68
2023/05/23 08:55:04;;;;;;;10.30;6.63;;;;;;;;;;5110667;28;20721;-67
2023/05/23 08:57:32;;;;;;;11.17;7.50;;;;;;;;;;5110957;28;20847;-68
2023/05/23 08:59:59;;;;;;;9.07;6.57;;;;;;;;;;5110578;28;20442;-68
2023/05/23 09:02:27;;;;;;;11.67;6.93;;;;;;;;;;5111122;28;20467;-68
2023/05/23 09:04:54;;;;;;;9.50;7.27;;;;;;;;;;5110531;28;20839;-68
2023/05/23 09:07:21;;;;;;;8.73;6.80;;;;;;;;;;5110248;28;20451;-69
2023/05/23 09:09:48;;;;;;;7.90;6.83;;;;;;;;;;5110592;28;20485;-68
2023/05/23 09:12:17;;;;;;;10.43;6.57;;;;;;;;;;5111090;28;20442;-68
2023/05/23 09:14:45;;;;;;;10.13;6.53;;;;;;;;;;5110347;28;20931;-68
2023/05/23 09:17:16;;;;;;;9.20;5.87;;;;;;;;;;5111661;28;20490;-68
2023/05/23 09:19:45;;;;;;;11.33;6.80;;;;;;;;;;5110702;28;20455;-68
2023/05/23 09:22:12;;;;;;;9.27;7.20;;;;;;;;;;5110774;28;20820;-69
2023/05/23 09:24:40;;;;;;;9.77;6.37;;;;;;;;;;5111061;28;20483;-68
2023/05/23 09:27:07;;;;;;;9.13;6.20;;;;;;;;;;5108847;28;20447;-68
2023/05/23 09:29:39;;;;;;;9.57;6.57;;;;;;;;;;5113965;28;20444;-68
2023/05/23 09:32:13;;;;;;;7.83;6.20;;;;;;;;;;5113359;28;20435;-69
2023/05/23 09:34:43;;;;;;;10.00;6.20;;;;;;;;;;5114228;28;20458;-68
2023/05/23 09:37:17;;;;;;;8.57;5.30;;;;;;;;;;5114426;28;20450;-68
2023/05/23 09:39:46;;;;;;;7.90;6.23;;;;;;;;;;5113663;28;20914;-68
2023/05/23 09:42:13;;;;;;;11.10;6.60;;;;;;;;;;5115131;27;20927;-68
2023/05/23 09:44:44;;;;;;;8.03;6.57;;;;;;;;;;5117620;27;20470;-68
2023/05/23 09:47:11;;;;;;;9.93;6.07;;;;;;;;;;5120808;27;20471;-67
2023/05/23 09:49:40;;;;;;;6.30;4.87;;;;;;;;;;5123557;27;20959;-67
2023/05/23 09:52:07;;;;;;;10.50;6.73;;;;;;;;;;5113331;28;20459;-69
2023/05/23 09:54:34;;;;;;;7.17;6.07;;;;;;;;;;5123954;27;20451;-69
2023/05/23 09:57:03;;;;;;;6.30;4.80;;;;;;;;;;5106775;27;20450;-68
2023/05/23 09:59:32;;;;;;;8.70;4.93;;;;;;;;;;5119961;27;20468;-68
2023/05/23 10:02:02;;;;;;;7.37;5.00;;;17.00;1.00;;;;;;5122722;27;20468;-67
2023/05/23 10:04:34;;;;;;;6.93;4.77;;;18.50;1.00;;;;;;5113611;28;20467;-67
2023/05/23 10:07:06;;;;;;;6.83;5.20;;;18.50;99.90;;;;;;5113416;28;20446;-67
2023/05/23 10:09:37;;;;;;;6.40;4.67;;;18.70;99.90;;;;;;5113008;28;20467;-67
2023/05/23 10:12:38;;;;;;;7.17;5.27;;;18.70;99.90;;;;;;5113101;28;20950;-68
2023/05/23 10:15:07;;;;;;;5.67;5.07;;;18.70;99.90;;;;;;5113272;28;20448;-68
2023/05/23 10:17:46;;;;;;;9.00;4.83;;;19.20;36.90;;;;;;5113307;28;20443;-67
2023/05/23 10:20:16;;;;;;;7.50;4.30;;;19.20;1.00;;;;;;5113559;28;20926;-68
2023/05/23 10:22:43;;;;;;;7.10;4.97;;;19.30;1.00;;;;;;5112912;28;20550;-69
2023/05/23 10:25:10;;;;;;;6.90;4.90;;;19.40;1.00;;;;;;5111674;28;20483;-68
2023/05/23 10:27:38;;;;;;;5.63;4.70;;;19.20;1.00;;;;;;5112994;28;20456;-67
2023/05/23 10:30:07;;;;;;;6.90;4.50;;;19.30;1.00;;;;;;5112807;28;20448;-67
2023/05/23 10:32:34;;;;;;;7.20;4.93;;;19.70;1.00;;;;;;5113380;28;20535;-67
2023/05/23 10:35:10;;;;;;;6.07;4.53;;;19.70;1.00;;;;;;5112484;28;21252;-67
2023/05/23 10:37:42;;;;;;;4.30;3.70;;;19.70;1.00;;;;;;5112728;28;20446;-67
2023/05/23 10:40:21;;;;;;;5.70;4.67;;;19.70;1.00;;;;;;5113459;28;20446;-67
2023/05/23 10:42:54;;;;;;;7.57;4.93;;;20.00;1.00;;;;;;5112852;28;20451;-67
2023/05/23 10:45:22;;;;;;;7.63;4.20;;;20.10;1.00;;;;;;5113243;28;20471;-68
2023/05/23 10:47:51;;;;;;;5.50;3.80;;;19.90;1.00;;;;;;5111802;28;20998;-68
2023/05/23 10:50:32;;;;;;;5.73;3.87;;;20.00;1.00;;;;;;5099581;28;20922;-68
2023/05/23 10:53:00;;;;;;;5.73;3.63;;;19.90;1.00;;;;;;5112335;28;20480;-68
2023/05/23 10:55:31;;;;;;;5.43;3.60;;;19.60;1.00;;;;;;5112943;28;20459;-68
2023/05/23 10:58:13;;;;;;;4.13;3.60;;;19.50;1.00;;;;;;5111943;28;20444;-68
2023/05/23 11:00:40;;;;;;;5.43;4.43;;;19.90;1.00;;;;;;5112939;28;20798;-68
2023/05/23 11:03:08;;;;;;;6.13;4.17;;;19.80;1.00;;;;;;5112814;28;20457;-68
2023/05/23 11:05:42;;;;;;;5.00;3.83;;;19.30;1.00;;;;;;5112356;28;20480;-67
2023/05/23 11:08:10;;;;;;;4.40;3.73;;;19.40;1.00;;;;;;5112115;28;20440;-67
2023/05/23 11:10:54;;;;;;;6.37;4.37;;;19.00;1.00;;;;;;5112844;28;20837;-67
2023/05/23 11:13:21;;;;;;;6.63;4.03;;;18.70;1.00;;;;;;5112821;28;20440;-67
2023/05/23 11:15:48;;;;;;;6.80;4.40;;;18.80;1.00;;;;;;5111963;28;20572;-67
2023/05/23 11:18:23;;;;;;;6.40;4.10;;;19.10;1.00;;;;;;5111961;28;20455;-68
2023/05/23 11:20:54;;;;;;;5.50;3.50;;;19.50;1.00;;;;;;5111929;28;20444;-67
2023/05/23 11:23:22;;;;;;;7.20;4.33;;;19.60;1.00;;;;;;5112490;28;20444;-68
2023/05/23 11:25:50;;;;;;;4.83;4.20;;;19.70;1.00;;;;;;5109140;28;20490;-67
2023/05/23 11:28:18;;;;;;;4.90;3.47;;;19.90;99.90;;;;;;5111831;28;20448;-67
2023/05/23 11:30:48;;;;;;;4.10;3.20;;;19.80;99.90;;;;;;5111438;28;20447;-67
2023/05/23 11:33:17;;;;;;;4.50;3.37;;;20.10;99.90;;;;;;5111702;27;20451;-68
2023/05/23 11:35:45;;;;;;;3.70;3.07;;;20.40;99.90;;;;;;5097209;28;20539;-70
2023/05/23 11:38:14;;;;;;;4.23;3.37;;;20.40;99.90;;;;;;5111354;28;20456;-67
2023/05/23 11:40:43;;;;;;;6.30;4.33;;;20.10;99.90;;;;;;5111919;28;20977;-70
2023/05/23 11:43:11;;;;;;;4.40;3.70;;;19.80;99.90;;;;;;5111997;28;20444;-67
2023/05/23 11:45:38;;;;;;;4.60;3.60;;;19.90;99.90;;;;;;5111755;28;20978;-67
2023/05/23 11:48:07;;;;;;;4.90;4.27;;;19.70;99.90;;;;;;5110730;28;20452;-67
2023/05/23 11:50:35;;;;;;;5.53;4.10;;;19.50;99.90;;;;;;5111486;28;20807;-67
2023/05/23 11:53:02;;;;;;;6.00;4.17;;;;;;;;;;5110939;28;20974;-67
2023/05/23 11:55:30;;;;;;;4.90;3.90;;;19.40;99.90;;;;;;5107176;28;20452;-67
2023/05/23 11:57:57;;;;;;;4.00;3.60;;;19.60;99.90;;;;;;5106027;28;20444;-67
2023/05/23 12:00:24;;;;;;;5.87;4.60;;;20.00;99.90;;;;;;5101764;28;20445;-67
2023/05/23 12:02:51;;;;;;;4.50;3.20;;;19.50;99.90;;;;;;5107866;28;20447;-67
2023/05/23 12:05:18;;;;;;;7.40;4.50;;;19.70;99.90;;;;;;5111841;28;20834;-67
2023/05/23 12:07:48;;;;;;;5.57;3.97;;;19.90;99.90;;;;;;5110581;28;20444;-68
2023/05/23 12:10:16;;;;;;;5.10;4.10;;;20.30;99.90;;;;;;5111307;28;20472;-69
2023/05/23 12:12:45;;;;;;;5.37;3.60;;;20.20;99.90;;;;;;5111044;28;20452;-66
2023/05/23 12:15:13;;;;;;;4.00;3.60;;;20.00;99.90;;;;;;5111673;28;20455;-67
2023/05/23 12:17:44;;;;;;;5.40;3.83;;;20.30;99.90;;;;;;5111177;28;20443;-67
2023/05/23 12:20:12;;;;;;;4.57;4.13;;;20.10;99.90;;;;;;5111866;28;20497;-67
2023/05/23 12:22:38;;;;;;;4.53;3.57;;;20.00;99.90;;;;;;5111657;28;20454;-67
2023/05/23 12:25:08;;;;;;;5.50;4.40;;;19.90;99.90;;;;;;5109186;28;20493;-66
2023/05/23 12:27:36;;;;;;;5.13;3.50;;;20.10;99.90;;;;;;5111143;28;20794;-68
2023/05/23 12:30:09;;;;;;;4.03;3.30;;;20.30;99.90;;;;;;5110501;28;20930;-68
2023/05/23 12:32:40;;;;;;;5.70;3.37;;;20.90;99.90;;;;;;5111674;28;20435;-66
2023/05/23 12:35:08;;;;;;;3.90;3.20;;;20.90;99.90;;;;;;5111644;28;20479;-67
2023/05/23 12:37:35;;;;;;;5.13;3.73;;;21.30;99.90;;;;;;5111172;28;20837;-67
2023/05/23 12:40:13;;;;;;;4.13;3.40;;;21.00;99.90;;;;;;5110466;28;20951;-67
2023/05/23 12:42:53;;;;;;;3.60;2.50;;;21.10;99.90;;;;;;5112335;28;20801;-68
2023/05/23 12:45:23;;;;;;;4.03;3.10;;;21.00;99.90;;;;;;5111382;28;20479;-67
2023/05/23 12:47:50;;;;;;;4.43;3.60;;;20.70;99.90;;;;;;5109419;28;20444;-67
2023/05/23 12:50:17;;;;;;;4.07;3.20;;;20.70;99.90;;;;;;5111159;28;20435;-68